Time;durP1;ratioP1;P1;durP2;ratioP2;P2;SDS_P1;SDS_P2;PMS_P1;PMS_P2;Temp;Humidity;BMP_temperature;BMP_pressure;BME280_temperature;BME280_humidity;BME280_pressure;Samples;Min_cycle;Max_cycle;Signal;HPM_P1;HPM_P2
2022/01/25 00:09:32;;;;;;;47.50;22.55;;;;;;;5.82;100.00;103077.09;5065812;28;20135;-77
2022/01/25 00:31:12;;;;;;;45.80;22.60;;;;;;;5.88;100.00;103073.09;5065134;28;20113;-74
2022/01/25 00:33:46;;;;;;;46.40;23.05;;;;;;;5.89;100.00;103080.22;5067106;28;20162;-74
2022/01/25 00:36:16;;;;;;;48.38;22.15;;;;;;;5.89;100.00;103071.97;5070121;28;20124;-73
2022/01/25 00:38:44;;;;;;;41.72;21.25;;;;;;;5.91;100.00;103077.16;5069364;28;20136;-71
2022/01/25 00:41:11;;;;;;;46.08;22.50;;;;;;;5.91;100.00;103071.66;5068762;28;20072;-74
2022/01/25 00:43:38;;;;;;;48.75;23.90;;;;;;;5.90;100.00;103065.34;5067221;28;20052;-73
2022/01/25 00:46:09;;;;;;;48.80;22.95;;;;;;;5.90;100.00;103072.81;5063092;28;20048;-73
2022/01/25 00:51:19;;;;;;;52.88;23.83;;;;;;;5.89;100.00;103077.47;5067494;28;20137;-73
2022/01/25 00:53:59;;;;;;;55.17;24.15;;;;;;;5.88;100.00;103075.03;5071557;28;20059;-75
2022/01/25 00:56:30;;;;;;;49.60;22.48;;;;;;;5.86;100.00;103067.09;5066134;28;20050;-73
2022/01/25 00:59:03;;;;;;;53.67;23.75;;;;;;;5.86;100.00;103072.59;5064795;28;20075;-76
2022/01/25 01:01:31;;;;;;;61.60;25.73;;;;;;;5.88;100.00;103069.53;5058308;28;20064;-73
2022/01/25 01:03:58;;;;;;;59.60;24.90;;;;;;;5.85;100.00;103064.66;5063811;28;20131;-75
2022/01/25 01:06:26;;;;;;;60.03;26.27;;;;;;;5.85;100.00;103064.66;5066761;28;20495;-74
2022/01/25 01:08:53;;;;;;;60.92;24.48;;;;;;;5.82;100.00;103057.84;5067327;28;20052;-73
2022/01/25 01:11:28;;;;;;;57.75;25.75;;;;;;;5.86;100.00;103072.59;5055796;28;20044;-73
2022/01/25 01:39:15;;;;;;;65.95;28.88;;;;;;;5.79;100.00;103054.84;5064111;28;20124;-72
2022/01/25 01:44:03;;;;;;;70.03;28.70;;;;;;;5.80;100.00;103053.75;5064661;28;20054;-72
2022/01/25 01:46:37;;;;;;;67.95;29.13;;;;;;;5.78;100.00;103064.22;5062439;28;20041;-71
2022/01/25 01:49:06;;;;;;;61.83;26.00;;;;;;;5.78;100.00;103059.56;5063822;28;20044;-73
2022/01/25 01:51:37;;;;;;;70.55;29.48;;;;;;;5.78;100.00;103059.56;5061906;28;20052;-74
2022/01/25 01:54:08;;;;;;;73.40;30.75;;;;;;;5.76;100.00;103056.31;5065679;28;20055;-74
2022/01/25 01:56:37;;;;;;;81.68;31.42;;;;;;;5.77;100.00;103048.88;5067233;28;20131;-74
2022/01/25 01:59:07;;;;;;;85.13;31.20;;;;;;;5.78;100.00;103045.81;5078662;28;20048;-71
2022/01/25 02:01:36;;;;;;;78.28;29.50;;;;;;;5.77;100.00;103048.88;5068076;28;20055;-72
2022/01/25 02:04:05;;;;;;;79.35;31.02;;;;;;;5.78;100.00;103045.81;5065949;28;20106;-72
2022/01/25 02:06:32;;;;;;;85.82;32.03;;;;;;;5.74;100.00;103044.00;5066516;28;20075;-72
2022/01/25 02:08:59;;;;;;;82.88;33.85;;;;;;;5.77;100.00;103054.38;5067892;28;20040;-74
2022/01/25 02:11:26;;;;;;;95.10;33.67;;;;;;;5.78;100.00;103047.75;5078936;28;20143;-75
2022/01/25 02:13:52;;;;;;;99.93;33.97;;;;;;;5.78;100.00;103045.00;5068424;28;20141;-72
2022/01/25 02:16:42;;;;;;;99.85;33.88;;;;;;;5.77;100.00;103040.63;5066991;28;20040;-71
2022/01/25 02:24:41;;;;;;;102.95;36.25;;;;;;;5.78;100.00;103039.50;5078629;28;20075;-71
2022/01/25 02:27:08;;;;;;;96.50;34.47;;;;;;;5.78;100.00;103032.09;5069555;28;20090;-73
2022/01/25 02:29:35;;;;;;;104.90;35.88;;;;;;;5.75;100.00;103029.97;5068253;28;20054;-74
2022/01/25 02:32:02;;;;;;;105.05;33.25;;;;;;;5.78;100.00;103036.75;5066717;28;20155;-74
2022/01/25 02:34:31;;;;;;;100.70;33.63;;;;;;;5.75;100.00;103021.72;5071417;28;20477;-74
2022/01/25 02:37:08;;;;;;;107.47;34.50;;;;;;;5.78;100.00;103029.34;5069337;28;20057;-71
2022/01/25 02:39:37;;;;;;;115.15;34.90;;;;;;;5.78;100.00;103028.53;5058509;28;20132;-72
2022/01/25 02:42:06;;;;;;;111.72;36.75;;;;;;;5.76;100.00;103028.81;5063732;28;20106;-71
2022/01/25 02:44:35;;;;;;;104.72;33.08;;;;;;;5.77;100.00;103024.94;5060687;28;20057;-72
2022/01/25 02:49:35;;;;;;;103.35;36.83;;;;;;;5.78;100.00;103032.09;5078182;28;20052;-70
2022/01/25 02:52:04;;;;;;;101.10;35.35;;;;;;;5.81;100.00;103037.00;5069341;28;20501;-74
2022/01/25 02:54:32;;;;;;;107.57;34.17;;;;;;;5.79;100.00;103027.38;5069594;28;20556;-74
2022/01/25 02:56:59;;;;;;;111.93;34.90;;;;;;;5.75;100.00;103027.22;5069496;28;20497;-74
2022/01/25 02:59:26;;;;;;;108.32;34.22;;;;;;;5.72;100.00;103027.00;5069210;28;20040;-73
2022/01/25 03:01:53;;;;;;;101.55;34.35;;;;;;;5.67;100.00;103019.69;5078127;28;20131;-72
2022/01/25 03:04:21;;;;;;;95.30;34.28;;;;;;;5.75;100.00;103029.13;5068707;28;20127;-72
2022/01/25 03:06:48;;;;;;;97.97;32.30;;;;;;;5.74;100.00;103030.25;5069576;28;20056;-75
2022/01/25 03:09:15;;;;;;;103.05;34.05;;;;;;;5.74;100.00;103028.31;5069292;28;20044;-72
2022/01/25 03:11:49;;;;;;;94.45;32.72;;;;;;;5.76;100.00;103030.75;5058839;28;20104;-73
2022/01/25 03:14:19;;;;;;;86.60;30.30;;;;;;;5.75;100.00;103032.69;5068777;28;20052;-72
2022/01/25 03:16:53;;;;;;;81.82;30.50;;;;;;;5.70;100.00;103030.06;5068042;28;20048;-72
2022/01/25 03:24:42;;;;;;;76.20;27.77;;;;;;;5.66;100.00;103030.97;5069482;28;20056;-73
2022/01/25 03:27:09;;;;;;;80.30;27.67;;;;;;;5.62;100.00;103029.97;5067613;28;20070;-73
2022/01/25 03:29:35;;;;;;;78.50;29.45;;;;;;;5.59;100.00;103028.66;5067432;28;20036;-72
2022/01/25 03:32:04;;;;;;;86.55;30.52;;;;;;;5.59;100.00;103025.09;5068757;28;20135;-74
2022/01/25 03:34:31;;;;;;;77.55;30.88;;;;;;;5.55;100.00;103016.66;5060107;28;20044;-73
2022/01/25 03:36:57;;;;;;;77.45;27.52;;;;;;;5.53;100.00;103018.09;5075313;28;20066;-72
2022/01/25 03:39:25;;;;;;;83.15;31.00;;;;;;;5.54;100.00;103016.97;5075586;28;20123;-72
2022/01/25 03:41:52;;;;;;;74.20;27.83;;;;;;;5.53;100.00;103005.16;5072968;28;20105;-73
2022/01/25 03:44:19;;;;;;;75.05;27.67;;;;;;;5.52;100.00;103000.81;5068348;28;20056;-74
2022/01/25 03:52:00;;;;;;;;;;;;;;;5.59;100.00;103003.13;5069234;28;20064;-72
2022/01/25 03:54:27;;;;;;;74.90;26.58;;;;;;;5.60;100.00;103008.31;5067846;28;20304;-76
2022/01/25 03:56:54;;;;;;;78.93;29.92;;;;;;;5.62;100.00;103000.59;5067935;28;20055;-73
2022/01/25 03:59:20;;;;;;;72.97;28.30;;;;;;;5.60;100.00;103002.03;5060004;28;20047;-73
2022/01/25 04:01:47;;;;;;;80.40;30.25;;;;;;;5.59;100.00;103006.69;5067534;28;20087;-72
2022/01/25 04:04:18;;;;;;;80.10;29.92;;;;;;;5.58;100.00;103010.56;5066163;28;20051;-72
2022/01/25 04:06:49;;;;;;;96.15;35.20;;;;;;;5.60;100.00;103005.56;5068237;28;20489;-73
2022/01/25 04:09:16;;;;;;;85.85;32.53;;;;;;;5.61;100.00;103006.38;5067046;28;20563;-72
2022/01/25 04:11:43;;;;;;;78.38;30.27;;;;;;;5.59;100.00;102997.63;5067952;28;20057;-72
2022/01/25 04:14:10;;;;;;;71.90;29.60;;;;;;;5.61;100.00;103001.72;5066675;28;20060;-74
2022/01/25 04:17:02;;;;;;;70.80;27.42;;;;;;;5.60;100.00;103007.50;5068427;28;20048;-73
2022/01/25 04:27:25;;;;;;;67.78;24.13;;;;;;;5.43;100.00;102990.88;5063093;28;20399;-73
2022/01/25 04:29:52;;;;;;;74.78;26.48;;;;;;;5.43;100.00;102988.13;5067522;28;20048;-73
2022/01/25 04:32:20;;;;;;;77.05;29.35;;;;;;;5.39;100.00;102985.16;5065810;28;20075;-75
2022/01/25 04:35:09;;;;;;;79.72;30.80;;;;;;;5.45;100.00;102989.44;5072607;28;20056;-73
2022/01/25 04:49:00;;;;;;;;;;;;;;;5.54;100.00;102993.09;5057257;28;20048;-74
2022/01/25 04:51:50;;;;;;;70.43;27.90;;;;;;;5.53;100.00;102991.44;5067186;28;19920;-73
2022/01/25 05:02:14;;;;;;;73.05;28.58;;;;;;;5.55;100.00;102993.88;5067398;28;20887;-71
2022/01/25 05:04:48;;;;;;;73.40;26.45;;;;;;;5.51;100.00;102984.63;5067003;28;20513;-72
2022/01/25 05:09:50;;;;;;;68.80;28.75;;;;;;;5.58;100.00;102987.78;5063837;28;20055;-74
2022/01/25 05:12:17;;;;;;;70.45;30.63;;;;;;;5.55;100.00;102994.69;5066167;28;20430;-74
2022/01/25 05:14:58;;;;;;;71.57;27.45;;;;;;;5.52;100.00;103000.81;5067102;28;20564;-76
2022/01/25 05:17:35;;;;;;;83.72;30.17;;;;;;;5.55;100.00;102996.63;5065755;28;20044;-73
2022/01/25 05:22:49;;;;;;;74.32;30.73;;;;;;;5.52;100.00;102999.97;5064716;28;20048;-73
2022/01/25 05:25:16;;;;;;;78.60;30.63;;;;;;;5.53;100.00;102996.94;5064709;28;20501;-72
2022/01/25 05:27:43;;;;;;;69.38;27.25;;;;;;;5.53;100.00;102996.94;5066724;28;20052;-73
2022/01/25 05:30:10;;;;;;;83.68;30.17;;;;;;;5.53;100.00;102993.41;5066944;28;20523;-73
2022/01/25 05:32:36;;;;;;;72.18;28.48;;;;;;;5.55;100.00;102994.69;5063591;28;20478;-73
2022/01/25 05:35:03;;;;;;;82.15;32.17;;;;;;;5.54;100.00;102990.34;5074117;28;20166;-74
2022/01/25 05:37:32;;;;;;;77.80;30.92;;;;;;;5.53;100.00;102991.44;5066438;28;20131;-72
2022/01/25 05:40:01;;;;;;;80.47;29.92;;;;;;;5.50;100.00;102986.56;5068427;28;20744;-74
2022/01/25 05:43:51;;;;;;;73.18;29.98;;;;;;;5.53;100.00;102983.19;5078701;28;20045;-72
2022/01/25 05:45:21;;;;;;;83.50;34.33;;;;;;;5.54;100.00;102993.09;5066771;28;20841;-74
2022/01/25 05:47:47;;;;;;;86.97;31.88;;;;;;;5.50;100.00;102981.06;5065504;28;20057;-73
2022/01/25 05:50:14;;;;;;;82.43;29.17;;;;;;;5.43;100.00;102985.38;5067816;28;20420;-73
2022/01/25 05:52:41;;;;;;;84.63;31.35;;;;;;;5.42;100.00;102981.81;5062013;28;20048;-70
2022/01/25 05:55:10;;;;;;;83.85;30.17;;;;;;;5.38;100.00;102984.38;5069766;28;20060;-71
2022/01/25 05:57:36;;;;;;;84.07;32.28;;;;;;;5.37;100.00;102984.69;5068651;28;20056;-71
2022/01/25 06:00:06;;;;;;;83.07;32.30;;;;;;;5.37;100.00;102987.44;5070606;28;20064;-71
2022/01/25 06:02:34;;;;;;;85.55;31.23;;;;;;;5.32;100.00;102985.59;5070245;28;20076;-72
2022/01/25 06:05:01;;;;;;;79.68;31.40;;;;;;;5.35;100.00;102982.25;5067617;28;20135;-75
2022/01/25 06:07:27;;;;;;;79.97;31.10;;;;;;;5.33;100.00;102987.22;5065369;28;20059;-72
2022/01/25 06:09:54;;;;;;;81.88;31.80;;;;;;;5.32;100.00;102991.09;5069689;28;20044;-72
2022/01/25 06:12:20;;;;;;;87.80;33.80;;;;;;;5.35;100.00;102986.91;5069480;28;20048;-72
2022/01/25 06:14:47;;;;;;;87.43;32.65;;;;;;;5.36;100.00;102983.84;5070438;28;20083;-72
2022/01/25 06:17:14;;;;;;;92.95;33.13;;;;;;;5.36;100.00;102988.53;5069855;28;20053;-73
2022/01/25 06:19:40;;;;;;;99.43;35.47;;;;;;;5.33;100.00;102976.22;5069241;28;20045;-74
2022/01/25 06:22:07;;;;;;;98.05;34.65;;;;;;;5.37;100.00;102982.72;5066663;28;20060;-74
2022/01/25 06:24:34;;;;;;;99.60;35.88;;;;;;;5.36;100.00;102989.34;5069396;28;20052;-73
2022/01/25 06:27:00;;;;;;;91.05;35.15;;;;;;;5.38;100.00;102989.88;5069754;28;20076;-73
2022/01/25 06:29:27;;;;;;;99.80;35.40;;;;;;;5.43;100.00;102985.38;5069351;28;20147;-73
2022/01/25 06:31:54;;;;;;;93.80;35.58;;;;;;;5.43;100.00;102987.00;5065299;28;20596;-72
2022/01/25 06:34:21;;;;;;;100.25;37.45;;;;;;;5.43;100.00;102979.88;5071874;28;20048;-74
2022/01/25 06:36:47;;;;;;;95.82;38.22;;;;;;;5.39;100.00;102985.16;5066945;28;20063;-74
2022/01/25 06:39:14;;;;;;;103.70;37.10;;;;;;;5.46;100.00;102993.78;5069972;28;20048;-70
2022/01/25 06:41:41;;;;;;;95.25;37.33;;;;;;;5.44;100.00;102983.13;5069746;28;20075;-72
2022/01/25 06:44:08;;;;;;;100.38;35.88;;;;;;;5.48;100.00;102994.31;5065200;28;20049;-72
2022/01/25 06:46:35;;;;;;;95.38;35.97;;;;;;;5.47;100.00;102989.13;5059713;28;20490;-71
2022/01/25 06:49:02;;;;;;;95.82;36.72;;;;;;;5.50;100.00;102994.00;5068832;28;20064;-72
2022/01/25 06:51:29;;;;;;;95.32;36.45;;;;;;;5.47;100.00;102986.38;5068720;28;20052;-72
2022/01/25 06:53:56;;;;;;;98.85;34.55;;;;;;;5.50;100.00;102994.78;5056790;28;20466;-73
2022/01/25 06:56:24;;;;;;;99.82;37.22;;;;;;;5.49;100.00;102993.19;5069193;28;20147;-73
2022/01/25 06:58:50;;;;;;;101.80;35.42;;;;;;;5.46;100.00;102993.00;5069812;28;20087;-72
2022/01/25 07:01:17;;;;;;;89.22;32.80;;;;;;;5.47;100.00;102998.97;5066148;28;20497;-74
2022/01/25 07:03:45;;;;;;;86.82;33.38;;;;;;;5.46;100.00;103007.53;5068842;28;20056;-70
2022/01/25 07:06:12;;;;;;;96.13;36.08;;;;;;;5.47;100.00;103009.16;5068390;28;20056;-73
2022/01/25 07:08:39;;;;;;;98.85;35.50;;;;;;;5.47;100.00;103007.22;5067527;28;20075;-73
2022/01/25 07:11:05;;;;;;;101.00;36.63;;;;;;;5.47;100.00;103008.34;5067934;28;20055;-72
2022/01/25 07:13:32;;;;;;;91.90;35.00;;;;;;;5.47;100.00;103000.09;5069200;28;20055;-72
2022/01/25 07:15:59;;;;;;;82.13;31.58;;;;;;;5.47;100.00;102997.38;5063112;28;20040;-71
2022/01/25 07:18:25;;;;;;;84.55;32.83;;;;;;;5.47;100.00;102997.38;5069225;28;20056;-72
2022/01/25 07:20:52;;;;;;;76.75;28.45;;;;;;;5.46;100.00;102993.00;5066499;28;20048;-72
2022/01/25 07:23:18;;;;;;;85.50;31.63;;;;;;;5.48;100.00;102994.31;5069432;28;20056;-73
2022/01/25 07:25:45;;;;;;;84.57;32.30;;;;;;;5.47;100.00;102996.22;5068974;28;20045;-73
2022/01/25 07:28:11;;;;;;;68.93;29.02;;;;;;;5.48;100.00;102994.31;5068036;28;20778;-71
2022/01/25 07:30:38;;;;;;;78.57;29.85;;;;;;;5.45;100.00;103000.41;5056303;28;20395;-72
2022/01/25 07:33:17;;;;;;;81.70;30.15;;;;;;;5.46;100.00;103006.72;5069182;28;20483;-73
2022/01/25 07:35:47;;;;;;;78.15;28.40;;;;;;;5.41;100.00;102994.72;5076036;28;20048;-72
2022/01/25 07:38:17;;;;;;;80.65;31.13;;;;;;;5.43;100.00;102997.97;5069567;28;20056;-72
2022/01/25 07:40:49;;;;;;;75.20;27.27;;;;;;;5.46;100.00;103006.72;5081985;28;20045;-72
2022/01/25 07:43:16;;;;;;;74.53;27.85;;;;;;;5.45;100.00;103008.66;5065623;28;20088;-71
2022/01/25 07:45:58;;;;;;;79.78;32.22;;;;;;;5.44;100.00;102994.09;5069293;28;20136;-75
2022/01/25 07:48:25;;;;;;;78.93;30.73;;;;;;;5.46;100.00;103003.97;5071511;28;20044;-73
2022/01/25 07:51:00;;;;;;;;;;;;;;;5.46;100.00;103010.28;5067829;28;20467;-74
2022/01/25 07:53:27;;;;;;;70.57;28.80;;;;;;;5.47;100.00;103008.34;5066778;28;20508;-74
2022/01/25 07:55:53;;;;;;;79.20;29.65;;;;;;;5.44;100.00;103007.84;5067857;28;20464;-72
2022/01/25 07:58:20;;;;;;;86.10;30.60;;;;;;;5.45;100.00;103005.91;5066207;28;20059;-71
2022/01/25 08:00:47;;;;;;;71.95;28.73;;;;;;;5.47;100.00;103013.84;5067253;28;20053;-71
2022/01/25 08:03:18;;;;;;;80.18;29.77;;;;;;;5.45;100.00;103005.91;5068347;28;20052;-70
2022/01/25 08:05:55;;;;;;;80.53;30.77;;;;;;;5.48;100.00;103010.78;5066427;28;20060;-70
2022/01/25 08:08:27;;;;;;;82.25;29.67;;;;;;;5.47;100.00;103012.72;5067036;28;20106;-70
2022/01/25 08:11:00;;;;;;;83.35;32.90;;;;;;;5.48;100.00;103010.78;5066019;28;20052;-72
2022/01/25 08:13:47;;;;;;;74.10;27.20;;;;;;;5.48;100.00;103014.31;5065185;28;20517;-69
2022/01/25 08:16:26;;;;;;;70.68;29.70;;;;;;;5.51;100.00;103012.09;5054995;28;20067;-70
2022/01/25 08:19:09;;;;;;;69.05;25.77;;;;;;;5.47;100.00;103022.91;5072162;28;20084;-70
2022/01/25 08:21:55;;;;;;;68.72;26.77;;;;;;;5.47;100.00;103019.34;5071635;28;20084;-67
2022/01/25 08:24:36;;;;;;;77.25;28.17;;;;;;;5.48;100.00;103024.53;5057658;28;20048;-71
2022/01/25 08:27:22;;;;;;;77.82;27.60;;;;;;;5.48;100.00;103013.53;5050753;28;20254;-73
2022/01/25 08:30:06;;;;;;;71.53;26.38;;;;;;;5.47;100.00;103006.44;5073797;28;20417;-72
2022/01/25 08:32:52;;;;;;;71.75;29.17;;;;;;;5.49;100.00;103012.41;4998480;28;20549;-71
2022/01/25 08:35:42;;;;;;;72.15;27.15;;;;;;;5.50;100.00;103022.25;4961705;28;20059;-74
2022/01/25 08:38:29;;;;;;;71.60;28.60;;;;;;;5.48;100.00;103017.06;4933931;28;20043;-71
2022/01/25 08:41:12;;;;;;;76.38;29.42;;;;;;;5.50;100.00;103016.78;5000796;28;20066;-69
2022/01/25 08:43:59;;;;;;;72.90;28.88;;;;;;;5.48;100.00;103017.06;4988575;28;20046;-72
2022/01/25 08:46:31;;;;;;;70.07;26.52;;;;;;;5.48;100.00;103024.53;5002497;28;20054;-72
2022/01/25 08:49:07;;;;;;;74.72;27.10;;;;;;;5.48;100.00;103033.56;4989813;28;20123;-71
2022/01/25 08:51:54;;;;;;;76.30;30.10;;;;;;;5.47;100.00;103031.13;4990264;28;20054;-71
2022/01/25 08:54:35;;;;;;;77.15;29.35;;;;;;;5.47;100.00;103033.06;4959574;28;20058;-74
2022/01/25 08:57:03;;;;;;;77.97;27.65;;;;;;;5.50;100.00;103037.94;4987960;28;20057;-71
2022/01/25 08:59:47;;;;;;;79.45;28.50;;;;;;;5.51;100.00;103034.91;5023375;28;20054;-72
2022/01/25 09:02:14;;;;;;;72.00;24.70;;;;;;;5.42;100.00;103033.97;5000037;28;20049;-71
2022/01/25 09:04:41;;;;;;;74.57;27.10;;;;;;;5.36;100.00;103030.53;5019455;28;20184;-72
2022/01/25 09:07:07;;;;;;;84.70;30.35;;;;;;;5.38;100.00;103036.53;5017102;28;20076;-74
2022/01/25 09:09:35;;;;;;;84.35;29.42;;;;;;;5.43;100.00;103040.28;5023564;28;20075;-75
2022/01/25 09:12:02;;;;;;;78.10;28.65;;;;;;;5.44;100.00;103037.25;5023982;28;20107;-73
2022/01/25 09:14:29;;;;;;;79.13;29.75;;;;;;;5.47;100.00;103035.81;5021072;28;20049;-71
2022/01/25 09:16:55;;;;;;;83.32;27.70;;;;;;;5.48;100.00;103039.03;5015387;28;20076;-73
2022/01/25 09:19:22;;;;;;;85.10;27.77;;;;;;;5.51;100.00;103036.81;5012384;28;20140;-73
2022/01/25 09:21:48;;;;;;;84.05;28.52;;;;;;;5.52;100.00;103035.69;5019481;28;20104;-71
2022/01/25 09:24:15;;;;;;;90.97;30.17;;;;;;;5.53;100.00;103037.34;5014292;28;20084;-73
2022/01/25 09:26:41;;;;;;;84.72;29.48;;;;;;;5.57;100.00;103038.34;5013528;28;20057;-72
2022/01/25 09:29:08;;;;;;;92.95;30.63;;;;;;;5.59;100.00;103030.59;5014665;28;20494;-72
2022/01/25 09:31:35;;;;;;;93.78;31.63;;;;;;;5.60;100.00;103046.75;5031587;28;20063;-72
2022/01/25 09:34:01;;;;;;;95.68;31.05;;;;;;;5.62;100.00;103043.72;5070134;28;20053;-71
2022/01/25 09:36:29;;;;;;;89.57;30.40;;;;;;;5.64;100.00;103038.72;5058899;28;20052;-72
2022/01/25 09:38:56;;;;;;;101.75;32.50;;;;;;;5.67;100.00;103046.34;5068272;28;20052;-74
2022/01/25 09:41:23;;;;;;;94.72;30.67;;;;;;;5.66;100.00;103034.53;5064506;28;20045;-72
2022/01/25 09:43:50;;;;;;;90.22;30.88;;;;;;;5.66;100.00;103048.28;5060476;28;20049;-74
2022/01/25 09:46:17;;;;;;;88.55;30.10;;;;;;;5.65;100.00;103049.41;5073918;28;20561;-73
2022/01/25 09:48:44;;;;;;;87.72;29.17;;;;;;;5.64;100.00;103042.31;5059624;28;20480;-72
2022/01/25 09:51:11;;;;;;;91.57;30.65;;;;;;;5.63;100.00;103054.38;5058867;28;20534;-73
2022/01/25 09:53:39;;;;;;;83.57;30.77;;;;;;;5.63;100.00;103051.63;5064224;28;20045;-72
2022/01/25 09:56:07;;;;;;;88.20;31.80;;;;;;;5.64;100.00;103057.97;5057787;28;20052;-72
2022/01/25 09:58:34;;;;;;;91.68;31.02;;;;;;;5.68;100.00;103062.53;5063408;28;20088;-72
2022/01/25 10:01:02;;;;;;;88.22;30.05;;;;;;;5.71;100.00;103055.59;5065682;28;20490;-72
2022/01/25 10:03:38;;;;;;;85.07;27.25;;;;;;;5.68;100.00;103053.47;5065632;28;20098;-73
2022/01/25 10:06:16;;;;;;;81.72;28.80;;;;;;;5.76;100.00;103066.47;5064660;28;20145;-72
2022/01/25 10:08:44;;;;;;;87.43;30.45;;;;;;;5.80;100.00;103059.25;5064224;28;20041;-72
2022/01/25 10:11:15;;;;;;;95.00;31.70;;;;;;;5.77;100.00;103065.38;5066399;28;20060;-73
2022/01/25 10:13:49;;;;;;;88.57;32.05;;;;;;;5.73;100.00;103062.41;5063677;28;20135;-73
2022/01/25 10:16:18;;;;;;;85.53;30.38;;;;;;;5.71;100.00;103066.59;5064023;28;20051;-72
2022/01/25 10:19:05;;;;;;;87.60;33.28;;;;;;;5.70;100.00;103064.97;5064444;28;20053;-72
2022/01/25 10:21:38;;;;;;;93.93;28.85;;;;;;;5.70;100.00;103070.47;5069510;28;20055;-72
2022/01/25 10:24:10;;;;;;;106.05;35.88;;;;;;;5.75;100.00;103068.41;5066072;28;20080;-72
2022/01/25 10:26:51;;;;;;;90.22;33.38;;;;;;;5.78;100.00;103064.22;5060828;28;20576;-72
2022/01/25 10:29:34;;;;;;;100.47;34.97;;;;;;;5.78;100.00;103066.97;5066957;28;20152;-73
2022/01/25 10:32:01;;;;;;;114.10;35.83;;;;;;;5.79;100.00;103072.16;5069585;28;20181;-72
2022/01/25 10:34:38;;;;;;;93.30;34.35;;;;;;;5.80;100.00;103067.50;5071046;28;20768;-73
2022/01/25 10:37:12;;;;;;;105.68;37.08;;;;;;;5.80;100.00;103062.00;5067265;28;20048;-72
2022/01/25 10:39:45;;;;;;;99.55;37.22;;;;;;;5.83;100.00;103067.72;5067986;28;20054;-72
2022/01/25 10:42:11;;;;;;;103.35;35.38;;;;;;;5.87;100.00;103067.91;5061417;28;20088;-72
2022/01/25 10:44:56;;;;;;;105.80;34.83;;;;;;;5.86;100.00;103071.78;5070086;28;20056;-71
2022/01/25 10:47:49;;;;;;;98.40;33.95;;;;;;;5.88;100.00;103066.78;5064825;28;20053;-75
2022/01/25 10:50:31;;;;;;;102.70;37.17;;;;;;;5.90;100.00;103064.56;5070104;28;20044;-73
2022/01/25 10:53:17;;;;;;;92.90;32.78;;;;;;;5.90;100.00;103064.56;5067500;28;20597;-72
2022/01/25 10:55:48;;;;;;;91.78;32.00;;;;;;;5.91;100.00;103068.91;5064113;28;20440;-73
2022/01/25 10:58:16;;;;;;;88.35;33.30;;;;;;;5.91;100.00;103066.19;5065403;28;20093;-72
2022/01/25 11:00:50;;;;;;;82.72;29.58;;;;;;;5.91;100.00;103058.75;5076528;28;20048;-75
2022/01/25 11:03:41;;;;;;;86.75;32.67;;;;;;;5.90;100.00;103061.81;5067338;28;20040;-72
2022/01/25 11:06:15;;;;;;;95.38;32.63;;;;;;;5.90;100.00;103064.56;5061545;28;20586;-72
2022/01/25 11:08:44;;;;;;;85.60;29.05;;;;;;;5.90;100.00;103062.59;5066412;28;20447;-75
2022/01/25 11:11:22;;;;;;;85.78;29.23;;;;;;;5.86;100.00;103058.84;5058699;28;20049;-74
2022/01/25 11:13:50;;;;;;;73.70;27.30;;;;;;;5.85;100.00;103059.97;5059105;28;20190;-74
2022/01/25 11:16:16;;;;;;;95.07;33.63;;;;;;;5.86;100.00;103055.28;5067867;28;20159;-72
2022/01/25 11:18:43;;;;;;;93.05;34.10;;;;;;;5.84;100.00;103063.03;5064551;28;20040;-73
2022/01/25 11:21:12;;;;;;;84.80;30.88;;;;;;;5.86;100.00;103061.59;5066573;28;20581;-75
2022/01/25 11:23:40;;;;;;;94.28;33.13;;;;;;;5.88;100.00;103059.38;5067372;28;20517;-74
2022/01/25 11:26:11;;;;;;;106.15;36.45;;;;;;;5.89;100.00;103060.16;5050282;28;20044;-76
2022/01/25 11:28:39;;;;;;;100.28;35.97;;;;;;;5.87;100.00;103057.72;5061097;28;20067;-75
2022/01/25 11:31:09;;;;;;;88.25;31.95;;;;;;;5.86;100.00;103058.03;5056490;28;20142;-75
2022/01/25 11:33:41;;;;;;;104.82;36.95;;;;;;;5.89;100.00;103052.75;5064532;28;20044;-73
2022/01/25 11:36:08;;;;;;;107.82;39.17;;;;;;;5.95;100.00;103047.94;5069076;28;20075;-73
2022/01/25 11:38:40;;;;;;;108.20;35.13;;;;;;;5.91;100.00;103050.50;5063959;28;20124;-74
2022/01/25 11:41:10;;;;;;;100.88;36.58;;;;;;;5.92;100.00;103048.56;5059056;28;20409;-78
2022/01/25 11:43:37;;;;;;;104.35;33.90;;;;;;;5.88;100.00;103037.38;5060681;28;20053;-74
2022/01/25 11:46:06;;;;;;;102.93;36.42;;;;;;;5.94;100.00;103046.31;5062951;28;20044;-73
2022/01/25 11:48:43;;;;;;;91.50;31.70;;;;;;;5.96;100.00;103049.56;5058732;28;20574;-72
2022/01/25 11:51:19;;;;;;;102.88;33.95;;;;;;;5.88;100.00;103051.13;5058932;28;20051;-73
2022/01/25 11:53:48;;;;;;;107.22;35.47;;;;;;;5.83;100.00;103056.72;5064822;28;20047;-73
2022/01/25 11:56:16;;;;;;;101.75;34.42;;;;;;;5.74;98.95;103042.03;5059329;28;20072;-73
2022/01/25 11:58:53;;;;;;;81.88;30.20;;;;;;;5.57;98.43;103041.09;5060193;28;20794;-74
2022/01/25 12:01:23;;;;;;;93.85;31.00;;;;;;;5.54;99.57;103041.69;5063945;28;20044;-73
2022/01/25 12:03:52;;;;;;;95.63;32.70;;;;;;;5.54;100.00;103033.47;5067747;28;20044;-72
2022/01/25 12:06:27;;;;;;;99.38;34.40;;;;;;;5.60;100.00;103035.78;5071432;28;20128;-72
2022/01/25 12:11:40;;;;;;;105.50;35.30;;;;;;;5.62;100.00;103040.97;5072666;28;20191;-75
2022/01/25 12:14:21;;;;;;;95.03;33.10;;;;;;;5.66;100.00;103040.03;5070650;28;20044;-72
2022/01/25 12:17:12;;;;;;;101.13;34.08;;;;;;;5.68;100.00;103045.22;5080665;28;20052;-73
2022/01/25 12:19:48;;;;;;;101.63;36.88;;;;;;;5.72;100.00;103043.47;5061499;28;20048;-73
2022/01/25 12:27:50;;;;;;;91.65;31.85;;;;;;;5.87;100.00;103029.44;5061717;28;20630;-74
2022/01/25 12:30:25;;;;;;;93.63;32.47;;;;;;;5.91;100.00;103024.97;5061125;28;20052;-72
2022/01/25 12:32:58;;;;;;;;;;;;;;;5.93;100.00;103029.00;5066567;28;20063;-70
2022/01/25 12:35:41;;;;;;;91.88;33.45;;;;;;;5.95;100.00;103013.03;5067045;28;19940;-73
2022/01/25 12:38:16;;;;;;;95.65;32.78;;;;;;;5.95;100.00;103014.97;5068036;28;20135;-73
2022/01/25 12:40:48;;;;;;;94.37;31.63;;;;;;;5.95;100.00;103018.53;5068510;28;20696;-72
2022/01/25 12:43:26;;;;;;;98.38;34.55;;;;;;;5.99;100.00;103004.97;5076133;28;20047;-74
2022/01/25 12:46:03;;;;;;;100.35;33.92;;;;;;;6.00;100.00;103001.91;5059100;28;20513;-74
2022/01/25 12:48:37;;;;;;;97.57;34.55;;;;;;;5.99;100.00;103002.22;5067673;28;20052;-72
2022/01/25 12:51:09;;;;;;;100.18;34.50;;;;;;;6.03;100.00;103000.47;5067860;28;21285;-72
2022/01/25 12:53:39;;;;;;;100.85;34.35;;;;;;;6.03;100.00;102994.97;5067346;28;20164;-74
2022/01/25 12:56:36;;;;;;;94.03;33.95;;;;;;;6.05;100.00;102995.47;5068450;28;20496;-72
2022/01/25 12:59:09;;;;;;;89.68;33.10;;;;;;;6.06;100.00;102991.59;5063561;28;20139;-72
2022/01/25 13:01:39;;;;;;;99.45;33.65;;;;;;;6.09;100.00;102993.72;5065985;28;20059;-72
2022/01/25 13:04:07;;;;;;;95.88;32.88;;;;;;;6.07;100.00;102980.28;5064640;28;20447;-74
2022/01/25 13:06:40;;;;;;;98.60;34.05;;;;;;;6.12;100.00;102993.94;5063141;28;20045;-73
2022/01/25 13:16:54;;;;;;;88.38;32.28;;;;;;;6.13;100.00;102980.97;5060627;28;20239;-73
2022/01/25 13:19:27;;;;;;;95.57;33.97;;;;;;;6.12;100.00;102971.13;5064982;28;20128;-72
2022/01/25 13:21:58;;;;;;;83.63;30.42;;;;;;;6.06;100.00;102964.13;5066868;28;20131;-73
2022/01/25 13:24:41;;;;;;;86.15;31.98;;;;;;;6.07;100.00;102974.00;5067250;28;20118;-74
2022/01/25 13:27:12;;;;;;;92.07;33.55;;;;;;;6.09;100.00;102982.72;5067079;28;20052;-73
2022/01/25 13:32:37;;;;;;;81.13;30.02;;;;;;;6.11;100.00;102969.50;5059094;28;20129;-72
2022/01/25 13:35:12;;;;;;;84.60;30.20;;;;;;;6.13;100.00;102973.56;5060956;28;20053;-72